»·PEaware :: ASU1 KSAN-KSNA

ASU1 :: KSAN-KSNA

FLIGHT INFORMATION

Flight Status: Arrived
Operator:
Arizona State University
More flights by this operator :: More flights under this callsign
Pilot: Arizona State University (3812)
Aircraft: BEECH AIRCRAFT SUPER KING AIR COMMUTER
(BE20)
More flights by this aircraft type
Origin: KSAN San Diego Intl-Lindbergh
United States
Destination: KSNA John Wayne-Orange Co
United States
More flights between these airports :: More routes between these airports
Route: KSAN PEBLE6 SLI KSNA
File this flight plan on PilotEdge
Remarks: Callsign SunDevil 1. * Request ILS RWY20R at KSNA* Wx is 300 / 2
Altitude:
(Current/Filed)
8,000ft
Speed:
(Current/Filed)
240kts
Departed: 27-Nov-19 09:44 AM
Arrived: 27-Nov-19 10:15 AM
Distance/Time
Traveled:
66nm/0:31
Distance/Time
To Go:
Arrived

Flight Plot

Page will automatically refresh every two minutes.


Map Options




Map Legend


Flown Route
Filed Route
Departure Airport
Arrival Airport
Navaid (VOR, NDB)
Fix

Horizontal Profiles

Position Reports

Time Latitude Longitude Heading Altitude Ground
Speed
27-Nov-19 09:20 32.730433 -117.190490 291 19ft 9kts
27-Nov-19 09:21 32.730433 -117.190490 291 19ft 9kts
27-Nov-19 09:22 32.730433 -117.190490 291 19ft 10kts
27-Nov-19 09:23 32.730433 -117.190490 291 19ft 9kts
27-Nov-19 09:24 32.730433 -117.190490 291 19ft 9kts
27-Nov-19 09:25 32.730433 -117.190490 291 19ft 9kts
27-Nov-19 09:26 32.730433 -117.190490 291 19ft 10kts
27-Nov-19 09:27 32.730433 -117.190490 291 19ft 10kts
27-Nov-19 09:29 32.730433 -117.190490 291 19ft 10kts
27-Nov-19 09:30 32.730433 -117.190490 291 19ft 10kts
27-Nov-19 09:31 32.730433 -117.190490 291 19ft 10kts
27-Nov-19 09:32 32.730433 -117.190490 291 19ft 9kts
27-Nov-19 09:33 32.730433 -117.190490 291 19ft 9kts
27-Nov-19 09:34 32.730433 -117.190490 291 19ft 9kts
27-Nov-19 09:35 32.730433 -117.190490 291 19ft 9kts
27-Nov-19 09:36 32.730433 -117.190490 291 19ft 10kts
27-Nov-19 09:37 32.730433 -117.190490 291 19ft 9kts
27-Nov-19 09:38 32.730433 -117.190490 291 19ft 9kts
27-Nov-19 09:39 32.730502 -117.190648 305 19ft 11kts
27-Nov-19 09:40 32.732613 -117.189690 103 19ft 14kts
27-Nov-19 09:41 32.730981 -117.182733 105 19ft 17kts
27-Nov-19 09:42 32.729621 -117.176763 87 19ft 9kts
27-Nov-19 09:43 32.729623 -117.176699 86 19ft 8kts
27-Nov-19 09:44 32.730715 -117.177898 285 19ft 51kts
27-Nov-19 09:45 32.742805 -117.214314 302 2134ft 142kts
27-Nov-19 09:45 32.765521 -117.248387 304 4233ft 170kts
27-Nov-19 09:47 32.800309 -117.302094 307 6938ft 180kts
27-Nov-19 09:48 32.833343 -117.352527 304 8153ft 223kts
27-Nov-19 09:48 32.867291 -117.406992 304 8050ft 249kts
27-Nov-19 09:50 32.930052 -117.470595 329 7970ft 257kts
27-Nov-19 09:51 32.985176 -117.525588 306 7905ft 258kts
27-Nov-19 09:51 33.020853 -117.583548 305 8114ft 247kts
27-Nov-19 09:52 33.063869 -117.651996 305 7945ft 256kts
27-Nov-19 09:54 33.115416 -117.731256 304 7979ft 253kts
27-Nov-19 09:54 33.149534 -117.789918 302 7946ft 255kts
27-Nov-19 09:55 33.205636 -117.839589 342 8128ft 251kts
27-Nov-19 09:56 33.276648 -117.865170 344 8083ft 251kts
27-Nov-19 09:57 33.347662 -117.889203 342 8011ft 253kts
27-Nov-19 09:58 33.417592 -117.916343 339 8111ft 250kts
27-Nov-19 09:59 33.487903 -117.942769 343 7959ft 257kts
27-Nov-19 10:00 33.559900 -117.970035 338 6873ft 259kts
27-Nov-19 10:01 33.630803 -117.999202 339 5234ft 256kts
27-Nov-19 10:02 33.698135 -118.011917 23 5123ft 229kts
27-Nov-19 10:03 33.756444 -117.967531 32 4372ft 243kts
27-Nov-19 10:04 33.810464 -117.929311 32 3549ft 222kts
27-Nov-19 10:05 33.862754 -117.891811 31 2973ft 206kts
27-Nov-19 10:06 33.891172 -117.840828 92 3128ft 192kts
27-Nov-19 10:07 33.873885 -117.787561 170 3064ft 180kts
27-Nov-19 10:08 33.830571 -117.784383 182 3049ft 144kts
27-Nov-19 10:09 33.796358 -117.791328 207 2570ft 115kts
27-Nov-19 10:10 33.768932 -117.808993 207 1976ft 110kts
27-Nov-19 10:11 33.742707 -117.826625 207 1419ft 111kts
27-Nov-19 10:12 33.715897 -117.843286 207 835ft 109kts
27-Nov-19 10:13 33.688336 -117.860990 208 259ft 107kts
27-Nov-19 10:14 33.675624 -117.869265 274 60ft 20kts
27-Nov-19 10:15 33.675751 -117.869709 297 60ft 17kts
27-Nov-19 10:16 33.674869 -117.871025 206 60ft 7kts
27-Nov-19 10:17 33.673682 -117.873234 152 60ft 15kts

Navigation Log

Ident Type
Flight plan parsing failed, navigation log unavailable